Key West Nas /Boca Chica Field/ Airport
KNQX : now visible

Airfield :











YOU CAN JOIN US ON...

 
LOGIN :

Register | Disclaimer

   EN    FR    IT 

 









Legend :    VFR   Marginal VFR   IFR   Intensive IFR   Very Intensive IFR
Visi :
Ceiling :
>= 8 km
>= 3000ft
5 to 8 km
1000 to 3000 ft
1500m to 5 km
500 to 1000 ft
800 to 1500m
200 to 500 ft
< 800m
< 200 ft
Symbols :   Thunderstorms  Fog  Heavy snow  Heavy precipitations  Wind > 20 kt






- Airport Elevation : 6 ft


KNQX - Key West Nas /Boca Chica Field/

CURRENT METAR :
  • 092353Z AUTO 31009KT 10SM CLR 27/22 A2988 RMK AO2 SLP117 T02670217 10306 20267 53004 $

EXPIRED METARs :
  • 092253Z AUTO 31009KT 10SM CLR 28/22 A2987 RMK AO2 SLP114 T02780217 $
  • 092153Z AUTO 31010KT 10SM CLR 29/22 A2988 RMK AO2 SLP115 T02890222 $

TAF TAF KNQX
Valid from the 09 at 23:00 until the 10 at 23:00 UTC


0923/1023 29010KT 9999 FEW030 QNH2982INS
FM100300 VRB05KT 9999 FEW250 QNH2984INS
FM101300 26008KT 9999 SKC QNH2983INS AUTOMATED SENSOR METWATCH 0918 TIL 1011 T24/1011Z T31/1019Z FN00210



MET'MAP, your aeronautical weather chart ! - Copyright ORBIFLY December 2007 - Disclaimer

ORBIFLY MET'MAP TEAM :

Programming & Development : Alexandra Zaïnal
Concept & original design : Baudouin d'Aumeries
Assistance for programming : Marc-Olivier Méhu
Technical & hardware support : Manuel Goepfert

Contact : metmap@orbifly.com




SOURCES & CREDITS :

   NOAA       Earth
Advisory